createdAt,value
2023-04-28T00:00:33.339Z,93.20
2023-04-28T00:03:19.657Z,93.20
2023-04-28T00:06:05.341Z,93.20
2023-04-28T00:08:50.729Z,93.20
2023-04-28T00:11:36.968Z,93.50
2023-04-28T00:14:22.629Z,93.30
2023-04-28T00:17:08.073Z,93.30
2023-04-28T00:19:53.539Z,93.20
2023-04-28T00:22:39.124Z,93.10
2023-04-28T00:25:24.727Z,93.20
2023-04-28T00:28:11.594Z,93.10
2023-04-28T00:30:57.408Z,93.20
2023-04-28T00:33:43.962Z,93.10
2023-04-28T00:36:29.674Z,92.80
2023-04-28T00:39:16.661Z,93.50
2023-04-28T00:42:02.749Z,92.90
2023-04-28T00:44:48.505Z,92.90
2023-04-28T00:47:38.227Z,93.30
2023-04-28T00:50:26.149Z,93.00
2023-04-28T00:53:12.945Z,93.10
2023-04-28T00:55:58.785Z,93.00
2023-04-28T00:58:44.178Z,92.90
2023-04-28T01:01:29.776Z,93.00
2023-04-28T01:04:21.298Z,92.70
2023-04-28T01:07:07.370Z,92.90
2023-04-28T01:09:52.788Z,92.80
2023-04-28T01:12:38.204Z,92.60
2023-04-28T01:15:23.767Z,92.50
2023-04-28T01:18:09.124Z,92.90
2023-04-28T01:20:54.953Z,92.60
2023-04-28T01:23:40.284Z,92.50
2023-04-28T01:26:26.523Z,92.30
2023-04-28T01:29:12.824Z,92.30
2023-04-28T01:31:58.374Z,92.40
2023-04-28T01:34:44.462Z,92.30
2023-04-28T01:37:29.930Z,92.20
2023-04-28T01:40:15.712Z,92.20
2023-04-28T01:43:00.994Z,92.40
2023-04-28T01:45:46.264Z,92.10
2023-04-28T01:48:31.737Z,92.00
2023-04-28T01:51:17.494Z,92.20
2023-04-28T01:54:02.768Z,92.10
2023-04-28T01:56:48.160Z,92.10
2023-04-28T01:59:33.697Z,91.90
2023-04-28T02:02:19.054Z,92.00
2023-04-28T02:05:04.880Z,92.20
2023-04-28T02:07:50.418Z,92.00
2023-04-28T02:10:39.274Z,92.10
2023-04-28T02:13:24.964Z,92.00
2023-04-28T02:16:10.555Z,92.10
2023-04-28T02:18:56.118Z,91.90
2023-04-28T02:21:43.321Z,92.00
2023-04-28T02:24:29.085Z,91.90
2023-04-28T02:27:14.773Z,92.10
2023-04-28T02:30:00.481Z,92.00
2023-04-28T02:32:46.208Z,92.00
2023-04-28T02:35:31.737Z,92.10
2023-04-28T02:38:17.144Z,92.00
2023-04-28T02:41:06.684Z,92.10
2023-04-28T02:43:51.908Z,92.20
2023-04-28T02:46:37.475Z,92.60
2023-04-28T02:49:23.040Z,92.50
2023-04-28T02:52:09.094Z,92.40
2023-04-28T02:54:55.102Z,92.50
2023-04-28T02:57:40.593Z,92.40
2023-04-28T03:00:25.942Z,92.60
2023-04-28T03:03:11.915Z,92.90
2023-04-28T03:05:57.845Z,92.80
2023-04-28T03:08:43.276Z,93.00
2023-04-28T03:11:28.684Z,93.40
2023-04-28T03:14:14.151Z,93.20
2023-04-28T03:17:00.130Z,93.20
2023-04-28T03:19:45.519Z,93.20
2023-04-28T03:22:31.325Z,93.90
2023-04-28T03:25:16.981Z,93.40
2023-04-28T03:28:02.478Z,94.00
2023-04-28T03:30:48.388Z,93.80
2023-04-28T03:33:33.721Z,93.60
2023-04-28T03:36:19.243Z,93.80
2023-04-28T03:39:04.781Z,94.10
2023-04-28T03:41:50.321Z,93.80
2023-04-28T03:44:35.876Z,93.90
2023-04-28T03:47:21.327Z,93.70
2023-04-28T03:50:08.002Z,94.30
2023-04-28T03:52:54.012Z,93.70
2023-04-28T03:55:39.347Z,93.50
2023-04-28T03:58:24.941Z,93.80
2023-04-28T04:01:10.211Z,93.50
2023-04-28T04:03:55.910Z,93.50
2023-04-28T04:06:41.858Z,93.40
2023-04-28T04:09:27.440Z,93.00
2023-04-28T04:12:13.048Z,92.70
2023-04-28T04:14:58.600Z,92.40
2023-04-28T04:17:44.666Z,92.30
2023-04-28T04:20:30.881Z,92.40
2023-04-28T04:23:16.636Z,92.40
2023-04-28T04:26:02.148Z,92.00
2023-04-28T04:28:47.440Z,91.60
2023-04-28T04:31:32.838Z,91.50
2023-04-28T04:34:18.383Z,91.40
2023-04-28T04:37:04.522Z,91.50
2023-04-28T04:39:50.104Z,91.30
2023-04-28T04:42:35.943Z,91.20
2023-04-28T04:45:22.026Z,91.20
2023-04-28T04:48:07.781Z,90.30
2023-04-28T04:50:53.587Z,89.50
2023-04-28T04:53:39.710Z,88.10
2023-04-28T04:56:25.183Z,86.80
2023-04-28T04:59:10.854Z,86.00
2023-04-28T05:01:56.524Z,84.20
2023-04-28T05:04:42.036Z,83.30
2023-04-28T05:07:28.143Z,83.50
2023-04-28T05:10:14.169Z,83.00
2023-04-28T05:12:59.817Z,84.40
2023-04-28T05:15:45.261Z,84.50
2023-04-28T05:18:30.903Z,84.80
2023-04-28T05:21:16.446Z,83.70
2023-04-28T05:24:02.665Z,85.00
2023-04-28T05:26:48.518Z,85.00
2023-04-28T05:29:33.931Z,83.90
2023-04-28T05:32:19.685Z,83.60
2023-04-28T05:35:05.596Z,83.20
2023-04-28T05:37:51.486Z,82.90
2023-04-28T05:40:37.440Z,84.20
2023-04-28T05:43:22.897Z,83.10
2023-04-28T05:46:18.285Z,82.60
2023-04-28T05:49:14.098Z,83.70
2023-04-28T05:51:59.777Z,82.80
2023-04-28T05:54:45.528Z,82.60
2023-04-28T05:57:33.985Z,80.70
2023-04-28T06:00:27.393Z,80.00
2023-04-28T06:03:13.090Z,77.60
2023-04-28T06:05:59.046Z,79.10
2023-04-28T06:08:44.513Z,78.50
2023-04-28T06:11:30.218Z,79.60
2023-04-28T06:14:16.908Z,77.30
2023-04-28T06:17:03.616Z,78.10
2023-04-28T06:19:49.499Z,76.70
2023-04-28T06:22:34.861Z,73.90
2023-04-28T06:25:20.127Z,76.20
2023-04-28T06:28:05.672Z,75.60
2023-04-28T06:30:51.220Z,75.20
2023-04-28T06:33:36.757Z,75.30
2023-04-28T06:36:22.070Z,74.80
2023-04-28T06:39:07.764Z,74.40
2023-04-28T06:41:53.774Z,74.30
2023-04-28T06:44:39.108Z,74.40
2023-04-28T06:47:24.699Z,74.30
2023-04-28T06:50:10.711Z,73.60
2023-04-28T06:52:56.230Z,72.40
2023-04-28T06:55:42.694Z,71.50
2023-04-28T06:58:28.442Z,72.10
2023-04-28T07:01:13.800Z,70.80
2023-04-28T07:03:59.496Z,69.40
2023-04-28T07:06:45.339Z,69.30
2023-04-28T07:09:31.538Z,69.00
2023-04-28T07:12:17.161Z,67.30
2023-04-28T07:15:02.835Z,67.90
2023-04-28T07:17:48.457Z,66.40
2023-04-28T07:20:34.239Z,67.00
2023-04-28T07:23:19.719Z,67.10
2023-04-28T07:26:05.546Z,66.90
2023-04-28T07:28:51.067Z,67.50
2023-04-28T07:31:36.423Z,66.80
2023-04-28T07:34:21.838Z,67.40
2023-04-28T07:37:07.694Z,66.80
2023-04-28T07:39:53.217Z,67.00
2023-04-28T07:42:38.574Z,65.10
2023-04-28T07:45:23.908Z,65.60
2023-04-28T07:48:09.577Z,64.40
2023-04-28T07:50:55.166Z,65.40
2023-04-28T07:53:40.713Z,65.20
2023-04-28T07:56:26.675Z,64.40
2023-04-28T07:59:12.017Z,65.20
2023-04-28T08:01:57.471Z,65.80
2023-04-28T08:04:43.721Z,64.70
2023-04-28T08:07:29.419Z,63.80
2023-04-28T08:10:15.176Z,63.70
2023-04-28T08:13:00.637Z,65.70
2023-04-28T08:15:48.765Z,65.40
2023-04-28T08:18:34.483Z,65.40
2023-04-28T08:21:20.401Z,63.70
2023-04-28T08:24:05.804Z,63.30
2023-04-28T08:26:51.837Z,63.40
2023-04-28T08:29:37.261Z,65.00
2023-04-28T08:32:22.731Z,64.90
2023-04-28T08:35:08.629Z,64.60
2023-04-28T08:37:53.976Z,63.70
2023-04-28T08:40:40.610Z,64.90
2023-04-28T08:43:26.149Z,65.50
2023-04-28T08:46:12.064Z,63.30
2023-04-28T08:49:01.863Z,65.40
2023-04-28T08:51:56.894Z,63.60
2023-04-28T08:54:43.561Z,65.70
2023-04-28T08:57:43.016Z,65.00
2023-04-28T09:00:28.748Z,60.90
2023-04-28T09:03:15.205Z,64.90
2023-04-28T09:06:02.384Z,63.80
2023-04-28T09:08:47.835Z,64.80
2023-04-28T09:11:33.495Z,63.90
2023-04-28T09:14:19.127Z,64.30
2023-04-28T09:17:14.791Z,65.00
2023-04-28T09:20:00.641Z,57.90
2023-04-28T09:22:46.320Z,64.30
2023-04-28T09:25:31.975Z,63.30
2023-04-28T09:28:22.404Z,64.00
2023-04-28T09:31:26.180Z,63.80
2023-04-28T09:34:14.884Z,58.30
2023-04-28T09:37:00.517Z,64.20
2023-04-28T09:39:52.332Z,64.20
2023-04-28T09:42:45.074Z,64.40
2023-04-28T09:45:40.032Z,64.90
2023-04-28T09:48:35.591Z,60.70
2023-04-28T09:51:21.593Z,66.90
2023-04-28T09:54:08.624Z,66.10
2023-04-28T09:56:55.529Z,65.30
2023-04-28T09:59:43.144Z,66.00
2023-04-28T10:05:18.280Z,65.80
2023-04-28T10:08:04.629Z,65.30
2023-04-28T10:10:52.558Z,64.50
2023-04-28T10:13:38.319Z,63.60
2023-04-28T10:16:24.265Z,63.90
2023-04-28T10:19:10.148Z,64.30
2023-04-28T10:22:49.763Z,65.70
2023-04-28T10:25:37.619Z,59.60
2023-04-28T10:28:24.011Z,58.90
2023-04-28T10:31:16.514Z,53.20
2023-04-28T10:34:23.173Z,56.70
2023-04-28T10:37:08.742Z,48.40
2023-04-28T10:40:36.641Z,64.40
2023-04-28T10:43:25.704Z,55.40
2023-04-28T10:46:12.136Z,56.60
2023-04-28T10:48:58.127Z,61.00
2023-04-28T10:51:43.645Z,60.20
2023-04-28T10:54:29.266Z,65.00
2023-04-28T10:57:19.294Z,72.60
2023-04-28T11:00:35.034Z,64.20
2023-04-28T11:03:48.808Z,48.50
2023-04-28T11:06:43.435Z,53.60
2023-04-28T11:09:31.875Z,67.70
2023-04-28T11:12:17.363Z,72.60
2023-04-28T11:15:12.916Z,78.10
2023-04-28T11:18:02.179Z,62.30
2023-04-28T11:20:55.888Z,88.00
2023-04-28T11:23:41.644Z,90.60
2023-04-28T11:26:28.552Z,87.50
2023-04-28T11:29:14.701Z,76.10
2023-04-28T11:32:01.123Z,70.70
2023-04-28T11:34:52.280Z,68.90
2023-04-28T11:37:37.556Z,57.00
2023-04-28T11:40:22.854Z,72.50
2023-04-28T11:43:08.352Z,83.10
2023-04-28T11:45:54.090Z,87.50
2023-04-28T11:48:39.496Z,81.10
2023-04-28T11:51:30.390Z,77.60
2023-04-28T11:54:28.758Z,64.40
2023-04-28T11:57:22.322Z,57.80
2023-04-28T12:00:16.100Z,54.80
2023-04-28T12:03:08.463Z,53.40
2023-04-28T12:05:54.164Z,67.50
2023-04-28T12:08:39.508Z,70.20
2023-04-28T12:11:25.847Z,68.90
2023-04-28T12:14:11.691Z,62.90
2023-04-28T12:16:57.128Z,58.90
2023-04-28T12:19:45.608Z,57.80
2023-04-28T12:22:34.414Z,56.50
2023-04-28T12:25:20.120Z,55.30
2023-04-28T12:28:08.375Z,59.10
2023-04-28T12:31:06.112Z,67.50
2023-04-28T12:33:52.076Z,56.30
2023-04-28T12:36:37.467Z,62.50
2023-04-28T12:39:22.945Z,61.40
2023-04-28T12:42:08.497Z,58.50
2023-04-28T12:44:53.945Z,63.20
2023-04-28T12:47:40.159Z,71.30
2023-04-28T12:50:25.548Z,82.10
2023-04-28T12:53:10.947Z,79.60
2023-04-28T12:55:56.284Z,66.90
2023-04-28T12:58:41.673Z,69.00
2023-04-28T13:01:27.726Z,57.10
2023-04-28T13:04:13.444Z,57.50
2023-04-28T13:06:59.634Z,59.40
2023-04-28T13:09:45.808Z,58.00
2023-04-28T13:12:31.721Z,59.90
2023-04-28T13:15:17.160Z,56.70
2023-04-28T13:18:03.237Z,56.80
2023-04-28T13:20:49.108Z,64.00
2023-04-28T13:23:34.627Z,74.10
2023-04-28T13:26:21.155Z,81.20
2023-04-28T13:29:06.943Z,91.50
2023-04-28T13:31:52.703Z,93.90
2023-04-28T13:34:38.584Z,96.00
2023-04-28T13:37:24.198Z,95.70
2023-04-28T13:40:11.088Z,95.60
2023-04-28T13:42:57.225Z,94.50
2023-04-28T13:45:43.007Z,91.20
2023-04-28T13:48:28.607Z,91.40
2023-04-28T13:51:13.986Z,87.40
2023-04-28T13:53:59.548Z,86.50
2023-04-28T13:56:45.170Z,79.90
2023-04-28T13:59:30.508Z,72.80
2023-04-28T14:02:16.708Z,73.80
2023-04-28T14:05:02.664Z,72.80
2023-04-28T14:07:48.219Z,72.50
2023-04-28T14:10:33.789Z,66.10
2023-04-28T14:13:20.754Z,65.70
2023-04-28T14:16:06.813Z,65.30
2023-04-28T14:18:52.204Z,64.20
2023-04-28T14:21:37.659Z,62.80
2023-04-28T14:24:23.805Z,62.30
2023-04-28T14:27:09.467Z,62.10
2023-04-28T14:29:54.864Z,62.00
2023-04-28T14:32:40.692Z,61.40
2023-04-28T14:35:26.270Z,61.80
2023-04-28T14:38:13.942Z,61.30
2023-04-28T14:41:00.858Z,59.60
2023-04-28T14:43:49.000Z,60.40
2023-04-28T14:46:35.082Z,60.60
2023-04-28T14:49:20.891Z,60.10
2023-04-28T14:52:06.767Z,60.30
2023-04-28T14:54:53.587Z,60.00
2023-04-28T14:57:39.177Z,60.30
2023-04-28T15:00:24.571Z,59.70
2023-04-28T15:03:10.117Z,59.50
2023-04-28T15:05:55.947Z,59.70
2023-04-28T15:08:41.594Z,59.00
2023-04-28T15:11:27.180Z,58.40
2023-04-28T15:14:12.825Z,58.40
2023-04-28T15:16:58.660Z,56.20
2023-04-28T15:19:44.220Z,59.10
2023-04-28T15:22:29.591Z,59.40
2023-04-28T15:25:14.778Z,60.10
2023-04-28T15:28:00.229Z,60.00
2023-04-28T15:30:46.164Z,60.10
2023-04-28T15:33:31.719Z,59.40
2023-04-28T15:36:17.291Z,58.60
2023-04-28T15:39:02.671Z,58.90
2023-04-28T15:41:48.298Z,59.00
2023-04-28T15:44:33.962Z,59.10
2023-04-28T15:47:19.425Z,59.70
2023-04-28T15:50:05.866Z,58.90
2023-04-28T15:52:51.391Z,59.10
2023-04-28T15:55:37.195Z,58.50
2023-04-28T15:58:22.508Z,59.60
2023-04-28T16:01:07.931Z,57.80
2023-04-28T16:03:54.016Z,58.30
2023-04-28T16:06:39.765Z,58.80
2023-04-28T16:09:25.395Z,59.30
2023-04-28T16:12:11.013Z,59.50
2023-04-28T16:14:56.454Z,60.30
2023-04-28T16:17:42.642Z,59.80
2023-04-28T16:20:28.503Z,60.80
2023-04-28T16:23:14.253Z,61.00
2023-04-28T16:26:00.209Z,60.80
2023-04-28T16:28:46.058Z,61.40
2023-04-28T16:31:31.646Z,61.10
2023-04-28T16:34:17.485Z,61.30
2023-04-28T16:37:03.117Z,61.80
2023-04-28T16:39:49.066Z,61.90
2023-04-28T16:42:36.022Z,61.80
2023-04-28T16:45:22.184Z,62.10
2023-04-28T16:48:08.180Z,62.00
2023-04-28T16:50:54.158Z,62.30
2023-04-28T16:53:39.733Z,62.20
2023-04-28T16:56:25.754Z,62.10
2023-04-28T16:59:11.432Z,62.20
2023-04-28T17:02:02.186Z,62.10
2023-04-28T17:04:47.998Z,61.90
2023-04-28T17:07:33.994Z,62.00
2023-04-28T17:10:19.790Z,62.50
2023-04-28T17:13:05.575Z,62.50
2023-04-28T17:15:55.810Z,62.50
2023-04-28T17:18:41.272Z,62.90
2023-04-28T17:21:27.554Z,62.90
2023-04-28T17:24:13.223Z,63.30
2023-04-28T17:26:58.976Z,63.20
2023-04-28T17:29:44.558Z,62.80
2023-04-28T17:32:30.168Z,63.00
2023-04-28T17:35:15.681Z,63.10
2023-04-28T17:38:00.948Z,63.40
2023-04-28T17:40:46.602Z,63.90
2023-04-28T17:43:32.007Z,64.40
2023-04-28T17:46:19.133Z,64.70
2023-04-28T17:49:05.422Z,64.60
2023-04-28T17:51:51.187Z,64.90
2023-04-28T17:54:36.785Z,65.30
2023-04-28T17:57:22.428Z,65.40
2023-04-28T18:00:09.139Z,65.30
2023-04-28T18:02:55.035Z,65.50
2023-04-28T18:05:41.026Z,66.00
2023-04-28T18:08:26.533Z,65.70
2023-04-28T18:11:12.603Z,65.60
2023-04-28T18:13:58.181Z,65.80
2023-04-28T18:16:43.883Z,65.80
2023-04-28T18:19:30.355Z,65.80
2023-04-28T18:22:15.846Z,65.60
2023-04-28T18:25:02.252Z,65.50
2023-04-28T18:27:47.791Z,65.40
2023-04-28T18:30:33.283Z,66.10
2023-04-28T18:33:21.442Z,66.30
2023-04-28T18:36:08.755Z,66.20
2023-04-28T18:38:54.433Z,66.70
2023-04-28T18:41:40.427Z,66.20
2023-04-28T18:44:26.340Z,66.40
2023-04-28T18:47:12.446Z,66.00
2023-04-28T18:49:58.623Z,65.90
2023-04-28T18:52:43.932Z,65.80
2023-04-28T18:55:29.662Z,65.60
2023-04-28T18:58:15.191Z,65.50
2023-04-28T19:01:00.756Z,65.60
2023-04-28T19:03:46.576Z,65.40
2023-04-28T19:06:32.174Z,65.50
2023-04-28T19:09:17.695Z,65.70
2023-04-28T19:12:03.029Z,66.20
2023-04-28T19:14:48.511Z,66.10
2023-04-28T19:17:34.236Z,66.20
2023-04-28T19:20:20.551Z,66.20
2023-04-28T19:23:06.370Z,66.20
2023-04-28T19:25:52.388Z,66.10
2023-04-28T19:28:37.862Z,66.20
2023-04-28T19:31:23.399Z,66.30
2023-04-28T19:34:09.172Z,66.20
2023-04-28T19:36:55.267Z,66.30
2023-04-28T19:39:40.657Z,65.70
2023-04-28T19:42:26.221Z,65.90
2023-04-28T19:45:12.177Z,65.70
2023-04-28T19:47:58.128Z,65.90
2023-04-28T19:50:43.658Z,66.30
2023-04-28T19:53:29.122Z,66.00
2023-04-28T19:56:14.518Z,66.40
2023-04-28T19:59:00.036Z,66.00
2023-04-28T20:01:45.429Z,65.90
2023-04-28T20:04:30.998Z,66.20
2023-04-28T20:07:16.971Z,66.10
2023-04-28T20:10:02.378Z,67.10
2023-04-28T20:12:47.834Z,66.80
2023-04-28T20:15:33.487Z,66.60
2023-04-28T20:18:19.304Z,66.70
2023-04-28T20:21:04.572Z,67.00
2023-04-28T20:23:50.103Z,67.40
2023-04-28T20:26:35.440Z,67.50
2023-04-28T20:29:20.736Z,67.30
2023-04-28T20:32:06.597Z,67.20
2023-04-28T20:34:51.866Z,66.90
2023-04-28T20:37:37.278Z,67.00
2023-04-28T20:40:22.963Z,67.10
2023-04-28T20:43:08.728Z,66.80
2023-04-28T20:45:53.968Z,67.20
2023-04-28T20:48:40.729Z,67.00
2023-04-28T20:51:26.391Z,66.70
2023-04-28T20:54:12.861Z,67.10
2023-04-28T20:56:59.597Z,67.20
2023-04-28T20:59:45.252Z,68.00
2023-04-28T21:02:30.908Z,67.60
2023-04-28T21:05:16.893Z,67.70
2023-04-28T21:08:02.341Z,67.40
2023-04-28T21:10:47.823Z,67.30
2023-04-28T21:13:33.356Z,67.10
2023-04-28T21:16:21.162Z,67.60
2023-04-28T21:19:07.351Z,67.80
2023-04-28T21:21:52.848Z,67.90
2023-04-28T21:24:38.270Z,68.40
2023-04-28T21:27:23.766Z,68.50
2023-04-28T21:30:09.648Z,68.60
2023-04-28T21:32:55.264Z,68.50
2023-04-28T21:35:41.170Z,68.40
2023-04-28T21:38:26.569Z,68.20
2023-04-28T21:41:11.825Z,69.30
2023-04-28T21:43:57.454Z,69.20
2023-04-28T21:46:42.803Z,69.70
2023-04-28T21:49:28.931Z,69.70
2023-04-28T21:52:14.598Z,69.00
2023-04-28T21:55:00.051Z,69.60
2023-04-28T21:57:45.910Z,69.30
2023-04-28T22:00:31.458Z,69.00
2023-04-28T22:03:17.334Z,69.30
2023-04-28T22:06:03.487Z,69.50
2023-04-28T22:08:49.039Z,69.20
2023-04-28T22:11:35.158Z,69.40
2023-04-28T22:14:35.508Z,69.80
2023-04-28T22:17:26.023Z,69.20
2023-04-28T22:20:12.344Z,69.70
2023-04-28T22:22:58.146Z,69.60
2023-04-28T22:25:44.016Z,70.10
2023-04-28T22:28:29.599Z,69.90
2023-04-28T22:31:15.103Z,70.00
2023-04-28T22:34:00.558Z,70.30
2023-04-28T22:36:46.088Z,70.50
2023-04-28T22:39:31.314Z,70.70
2023-04-28T22:42:16.990Z,70.30
2023-04-28T22:45:03.603Z,70.10
2023-04-28T22:47:49.647Z,70.90
2023-04-28T22:50:35.465Z,71.30
2023-04-28T22:53:20.816Z,71.30
2023-04-28T22:56:06.527Z,71.80
2023-04-28T22:58:51.818Z,70.90
2023-04-28T23:01:37.471Z,71.00
2023-04-28T23:04:23.079Z,71.20
2023-04-28T23:07:08.965Z,71.60
2023-04-28T23:09:54.528Z,71.30
2023-04-28T23:12:39.814Z,72.10
2023-04-28T23:15:25.293Z,72.10
2023-04-28T23:18:10.827Z,73.40
2023-04-28T23:20:56.364Z,73.30
2023-04-28T23:23:41.805Z,74.40
2023-04-28T23:26:29.254Z,74.70
2023-04-28T23:29:14.734Z,74.60
2023-04-28T23:32:00.265Z,75.60
2023-04-28T23:34:46.038Z,76.60
2023-04-28T23:37:31.501Z,76.10
2023-04-28T23:40:17.209Z,78.10
2023-04-28T23:43:02.414Z,78.50
2023-04-28T23:45:47.908Z,77.80
2023-04-28T23:48:33.893Z,79.60
2023-04-28T23:51:20.058Z,79.60
2023-04-28T23:54:05.704Z,81.00
2023-04-28T23:56:51.093Z,79.20
2023-04-28T23:59:36.404Z,78.80
